Terminal Aerodrome Forecast
Issued by NWS

Home | Current Version | Previous Version | Text Only | Print | Product List | Glossary On
Versions: 1 2 3 4 5 6 7 8 9 10 11 12 13 14
000
FTUS41 KCAR 231100 AAA
TAFHUL
TAF AMD
KHUL 231153Z 2312/2412 14007KT 2SM -SHRA BR OVC004
     FM231500 36006KT P6SM BKN015 OVC020
     FM232300 34010KT 5SM -RA BR OVC008=

USA.gov is the U.S. government's official web portal to all federal, state and local government web resources and services.